Terminal Aerodrome Forecast
Issued by NWS Pueblo, CO

Home | Current Version | Previous Version | Text Only | Print | Product List | Glossary On
Versions: 1 2 3 4 5 6 7 8 9 10 11 12 13 14 15 16 17 18 19 20 21 22 23 24 25 26 27 28 29 30 31 32 33 34 35 36 37 38 39 40 41 42 43 44 45 46 47 48 49 50
000
FTUS45 KPUB 042339
TAFPUB
TAF
KPUB 042339Z 0500/0524 13012KT P6SM VCTS SCT045CB BKN090
      TEMPO 0501/0503 -TSRA BKN040CB
     FM050400 10008KT P6SM VCSH SCT020 OVC040
     FM050800 08006KT 5SM BR VCSH SCT010 OVC020
     FM051200 10010KT 5SM -SHRA BR SCT015 OVC025
     FM052000 18012KT P6SM VCTS SCT030CB BKN060=

USA.gov is the U.S. government's official web portal to all federal, state and local government web resources and services.